Map

Track Data

SID SEASON NUMBER BASIN SUBBASIN NAME ISO_TIME NATURE LAT LON WMO_WIND WMO_PRES WMO_AGENCY TRACK_TYPE DIST2LAND LANDFALL IFLAG USA_AGENCY USA_ATCF_ID USA_LAT USA_LON USA_RECORD USA_STATUS USA_WIND USA_PRES USA_SSHS USA_R34_NE USA_R34_SE USA_R34_SW USA_R34_NW USA_R50_NE USA_R50_SE USA_R50_SW USA_R50_NW USA_R64_NE USA_R64_SE USA_R64_SW USA_R64_NW USA_POCI USA_ROCI USA_RMW USA_EYE TOKYO_LAT TOKYO_LON TOKYO_GRADE TOKYO_WIND TOKYO_PRES TOKYO_R50_DIR TOKYO_R50_LONG TOKYO_R50_SHORT TOKYO_R30_DIR TOKYO_R30_LONG TOKYO_R30_SHORT TOKYO_LAND CMA_LAT CMA_LON CMA_CAT CMA_WIND CMA_PRES HKO_LAT HKO_LON HKO_CAT HKO_WIND HKO_PRES NEWDELHI_LAT NEWDELHI_LON NEWDELHI_GRADE NEWDELHI_WIND NEWDELHI_PRES NEWDELHI_CI NEWDELHI_DP NEWDELHI_POCI REUNION_LAT REUNION_LON REUNION_TYPE REUNION_WIND REUNION_PRES REUNION_TNUM REUNION_CI REUNION_RMW REUNION_R34_NE REUNION_R34_SE REUNION_R34_SW REUNION_R34_NW REUNION_R50_NE REUNION_R50_SE REUNION_R50_SW REUNION_R50_NW REUNION_R64_NE REUNION_R64_SE REUNION_R64_SW REUNION_R64_NW BOM_LAT BOM_LON BOM_TYPE BOM_WIND BOM_PRES BOM_TNUM BOM_CI BOM_RMW BOM_R34_NE BOM_R34_SE BOM_R34_SW BOM_R34_NW BOM_R50_NE BOM_R50_SE BOM_R50_SW BOM_R50_NW BOM_R64_NE BOM_R64_SE BOM_R64_SW BOM_R64_NW BOM_ROCI BOM_POCI BOM_EYE BOM_POS_METHOD BOM_PRES_METHOD NADI_LAT NADI_LON NADI_CAT NADI_WIND NADI_PRES WELLINGTON_LAT WELLINGTON_LON WELLINGTON_WIND WELLINGTON_PRES DS824_LAT DS824_LON DS824_STAGE DS824_WIND DS824_PRES TD9636_LAT TD9636_LON TD9636_STAGE TD9636_WIND TD9636_PRES TD9635_LAT TD9635_LON TD9635_WIND TD9635_PRES TD9635_ROCI NEUMANN_LAT NEUMANN_LON NEUMANN_CLASS NEUMANN_WIND NEUMANN_PRES MLC_LAT MLC_LON MLC_CLASS MLC_WIND MLC_PRES USA_GUST BOM_GUST BOM_GUST_PER REUNION_GUST REUNION_GUST_PER USA_SEAHGT USA_SEARAD_NE USA_SEARAD_SE USA_SEARAD_SW USA_SEARAD_NW STORM_SPEED STORM_DIR
1858263N25299 1858 14 NA NA NOT_NAMED 1858-09-19 12:00:00 TS 25.1000 -61.2000 main 875 870 _____________O -1 25.1000 -61.2000 TD 30 7 308
1858263N25299 1858 14 NA NA NOT_NAMED 1858-09-19 15:00:00 TS 25.3101 -61.4998 main 879 879 _____________P -1 25.3101 -61.4998 TD 30 7 306
1858263N25299 1858 14 NA NA NOT_NAMED 1858-09-19 18:00:00 TS 25.5000 -61.8000 main 885 880 _____________O -1 25.5000 -61.8000 TD 30 6 303
1858263N25299 1858 14 NA NA NOT_NAMED 1858-09-19 21:00:00 TS 25.6574 -62.1001 main 892 883 _____________P -1 25.6574 -62.1001 TD 30 6 299
1858263N25299 1858 14 NA NA NOT_NAMED 1858-09-20 00:00:00 TS 25.8000 -62.4000 main 890 886 _____________O -1 25.8000 -62.4000 TD 30 6 298
1858263N25299 1858 14 NA NA NOT_NAMED 1858-09-20 03:00:00 TS 25.9499 -62.7001 main 889 889 _____________P -1 25.9499 -62.7001 TD 32 6 299
1858263N25299 1858 14 NA NA NOT_NAMED 1858-09-20 06:00:00 TS 26.1000 -63.0000 main 901 898 _____________O -1 26.1000 -63.0000 TS 35 6 298
1858263N25299 1858 14 NA NA NOT_NAMED 1858-09-20 09:00:00 TS 26.2273 -63.2854 main 903 903 _____________P -1 26.2273 -63.2854 TS 40 6 299
1858263N25299 1858 14 NA NA NOT_NAMED 1858-09-20 12:00:00 TS 26.4000 -63.6000 main 917 915 _____________O -1 26.4000 -63.6000 TS 45 8 306
1858263N25299 1858 14 NA NA NOT_NAMED 1858-09-20 15:00:00 TS 26.6850 -63.9848 main 942 940 _____________P -1 26.6850 -63.9848 TS 47 9 310
1858263N25299 1858 14 NA NA NOT_NAMED 1858-09-20 18:00:00 TS 27.0000 -64.4000 main 969 967 _____________O -1 27.0000 -64.4000 TS 50 9 308
1858263N25299 1858 14 NA NA NOT_NAMED 1858-09-20 21:00:00 TS 27.2499 -64.8003 main 987 987 _____________P -1 27.2499 -64.8003 TS 52 9 305
1858263N25299 1858 14 NA NA NOT_NAMED 1858-09-21 00:00:00 TS 27.5000 -65.2000 main 1007 1002 _____________O -1 27.5000 -65.2000 TS 55 9 306
1858263N25299 1858 14 NA NA NOT_NAMED 1858-09-21 03:00:00 TS 27.7699 -65.6004 main 1019 1015 _____________P -1 27.7699 -65.6004 TS 57 9 310
1858263N25299 1858 14 NA NA NOT_NAMED 1858-09-21 06:00:00 TS 28.1000 -66.0000 main 1033 1033 _____________O -1 28.1000 -66.0000 TS 60 11 318
1858263N25299 1858 14 NA NA NOT_NAMED 1858-09-21 09:00:00 TS 28.5724 -66.4070 main 1060 1054 _____________P -1 28.5724 -66.4070 TS 60 11 322
1858263N25299 1858 14 NA NA NOT_NAMED 1858-09-21 12:00:00 TS 29.0000 -66.8000 main 1071 1065 _____________O -1 29.0000 -66.8000 TS 60 9 313
1858263N25299 1858 14 NA NA NOT_NAMED 1858-09-21 15:00:00 TS 29.1949 -67.1656 main 1065 1035 _____________P -1 29.1949 -67.1656 TS 62 7 296
1858263N25299 1858 14 NA NA NOT_NAMED 1858-09-21 18:00:00 TS 29.3000 -67.5000 main 1035 1006 _____________O -1 29.3000 -67.5000 HU 65 6 295
1858263N25299 1858 14 NA NA NOT_NAMED 1858-09-21 21:00:00 TS 29.4498 -67.7927 main 1006 969 _____________P -1 29.4498 -67.7927 HU 65 6 300
1858263N25299 1858 14 NA NA NOT_NAMED 1858-09-22 00:00:00 TS 29.6000 -68.1000 main 969 933 _____________O -1 29.6000 -68.1000 HU 65 7 296
1858263N25299 1858 14 NA NA NOT_NAMED 1858-09-22 03:00:00 TS 29.7502 -68.5075 main 925 889 _____________P -1 29.7502 -68.5075 HU 65 8 293
1858263N25299 1858 14 NA NA NOT_NAMED 1858-09-22 06:00:00 TS 29.9000 -68.9000 main 889 860 _____________O -1 29.9000 -68.9000 HU 65 7 297
1858263N25299 1858 14 NA NA NOT_NAMED 1858-09-22 09:00:00 TS 30.0574 -69.2025 main 852 831 _____________P -1 30.0574 -69.2025 HU 65 5 305
1858263N25299 1858 14 NA NA NOT_NAMED 1858-09-22 12:00:00 TS 30.2000 -69.4000 main 831 816 _____________O -1 30.2000 -69.4000 HU 65 4 314
1858263N25299 1858 14 NA NA NOT_NAMED 1858-09-22 15:00:00 TS 30.3074 -69.5026 main 816 809 _____________P -1 30.3074 -69.5026 HU 65 2 335
1858263N25299 1858 14 NA NA NOT_NAMED 1858-09-22 18:00:00 TS 30.4000 -69.5000 main 809 802 _____________O -1 30.4000 -69.5000 HU 65 2 20
1858263N25299 1858 14 NA NA NOT_NAMED 1858-09-22 21:00:00 TS 30.5000 -69.4300 main 809 802 _____________P -1 30.5000 -69.4300 HU 67 3 41
1858263N25299 1858 14 NA NA NOT_NAMED 1858-09-23 00:00:00 TS 30.6000 -69.3000 main 810 810 _____________O -1 30.6000 -69.3000 HU 70 3 50
1858263N25299 1858 14 NA NA NOT_NAMED 1858-09-23 03:00:00 TS 30.7000 -69.1500 main 810 810 _____________P -1 30.7000 -69.1500 HU 70 3 53
1858263N25299 1858 14 NA NA NOT_NAMED 1858-09-23 06:00:00 TS 30.8000 -69.0000 main 819 819 _____________O -1 30.8000 -69.0000 HU 70 985 2 34
1858263N25299 1858 14 NA NA NOT_NAMED 1858-09-23 09:00:00 TS 30.8460 -69.0332 main 819 812 _____________P -1 30.8460 -69.0332 HU 70 3 41
1858263N25299 1858 14 NA NA NOT_NAMED 1858-09-23 12:00:00 TS 31.0000 -68.8000 main 819 818 _____________O -1 31.0000 -68.8000 HU 70 11 60
1858263N25299 1858 14 NA NA NOT_NAMED 1858-09-23 15:00:00 TS 31.4065 -67.8943 main 856 856 _____________P -1 31.4065 -67.8943 HU 70 20 63
1858263N25299 1858 14 NA NA NOT_NAMED 1858-09-23 18:00:00 TS 31.9000 -66.7000 main 919 919 _____________O -1 31.9000 -66.7000 HU 70 20 66
1858263N25299 1858 14 NA NA NOT_NAMED 1858-09-23 21:00:00 TS 32.2050 -65.7760 main 977 977 _____________P -1 32.2050 -65.7760 HU 70 19 66
1858263N25299 1858 14 NA NA NOT_NAMED 1858-09-24 00:00:00 TS 32.7000 -64.6000 main 1057 1057 _____________O -1 32.7000 -64.6000 HU 70 30 61
1858263N25299 1858 14 NA NA NOT_NAMED 1858-09-24 03:00:00 TS 33.6663 -62.7030 main 1096 1049 _____________P -1 33.6663 -62.7030 HU 70 39 57
1858263N25299 1858 14 NA NA NOT_NAMED 1858-09-24 06:00:00 TS 34.8000 -60.7000 main 1045 1003 _____________O -1 34.8000 -60.7000 HU 70 35 53
1858263N25299 1858 14 NA NA NOT_NAMED 1858-09-24 09:00:00 TS 35.8019 -59.2676 main 997 970 _____________P -1 35.8019 -59.2676 HU 70 30 48
1858263N25299 1858 14 NA NA NOT_NAMED 1858-09-24 12:00:00 TS 36.8000 -58.0000 main 966 903 _____________O -1 36.8000 -58.0000 HU 70 30 47
1858263N25299 1858 14 NA NA NOT_NAMED 1858-09-24 15:00:00 TS 37.8452 -56.5210 main 907 861 _____________P -1 37.8452 -56.5210 HU 72 30 49
1858263N25299 1858 14 NA NA NOT_NAMED 1858-09-24 18:00:00 TS 38.8000 -55.1000 main 865 790 _____________O -1 38.8000 -55.1000 HU 75 27 50
1858263N25299 1858 14 NA NA NOT_NAMED 1858-09-24 21:00:00 TS 39.5421 -53.9062 main 789 711 _____________P -1 39.5421 -53.9062 HU 75 23 52
1858263N25299 1858 14 NA NA NOT_NAMED 1858-09-25 00:00:00 TS 40.2000 -52.8000 main 712 644 _____________O -1 40.2000 -52.8000 HU 75 22 52
1858263N25299 1858 14 NA NA NOT_NAMED 1858-09-25 03:00:00 TS 40.8990 -51.6052 main 646 595 _____________P -1 40.8990 -51.6052 HU 72 23 52
1858263N25299 1858 14 NA NA NOT_NAMED 1858-09-25 06:00:00 TS 41.6000 -50.4000 main 598 568 _____________O -1 41.6000 -50.4000 HU 70 23 52
1858263N25299 1858 14 NA NA NOT_NAMED 1858-09-25 09:00:00 TS 42.2987 -49.1974 main 572 566 _____________P -1 42.2987 -49.1974 HU 70 23 52
1858263N25299 1858 14 NA NA NOT_NAMED 1858-09-25 12:00:00 ET 43.0000 -48.0000 main 571 569 _____________O -1 43.0000 -48.0000 EX 70 22 51
1858263N25299 1858 14 NA NA NOT_NAMED 1858-09-25 15:00:00 ET 43.7025 -46.8057 main 593 593 _____________P -1 43.7025 -46.8057 EX 70 22 51
1858263N25299 1858 14 NA NA NOT_NAMED 1858-09-25 18:00:00 ET 44.4000 -45.6000 main 632 _____________O -1 44.4000 -45.6000 EX 70 22 51

About IBTrACS Database

This database is a web-friendly format of International Best Track Archive for Climate Stewardship (IBTrACS), a global best track data archive curated by NOAA dating back to 1842.

Updated: 2021-10-21